createdAt,value
2023-04-15T00:01:19.375Z,68.59
2023-04-15T00:03:48.638Z,68.35
2023-04-15T00:06:16.746Z,68.33
2023-04-15T00:08:44.929Z,68.11
2023-04-15T00:11:13.055Z,68.46
2023-04-15T00:13:41.166Z,67.70
2023-04-15T00:16:10.820Z,67.62
2023-04-15T00:18:40.129Z,67.69
2023-04-15T00:21:08.089Z,68.95
2023-04-15T00:23:36.596Z,69.80
2023-04-15T00:26:04.539Z,71.22
2023-04-15T00:28:32.383Z,71.83
2023-04-15T00:31:00.545Z,72.91
2023-04-15T00:33:28.479Z,74.06
2023-04-15T00:35:57.715Z,73.91
2023-04-15T00:38:25.658Z,74.33
2023-04-15T00:40:53.918Z,74.01
2023-04-15T00:43:21.949Z,72.96
2023-04-15T00:45:51.562Z,73.67
2023-04-15T00:48:20.164Z,74.04
2023-04-15T00:50:48.752Z,74.08
2023-04-15T00:53:18.319Z,75.22
2023-04-15T00:55:47.817Z,74.90
2023-04-15T00:58:16.183Z,75.05
2023-04-15T01:00:44.667Z,75.66
2023-04-15T01:03:12.866Z,74.67
2023-04-15T01:05:41.445Z,75.16
2023-04-15T01:08:09.860Z,74.64
2023-04-15T01:10:39.534Z,74.65
2023-04-15T01:13:07.363Z,74.27
2023-04-15T01:15:37.329Z,74.51
2023-04-15T01:18:05.756Z,75.09
2023-04-15T01:20:34.101Z,74.96
2023-04-15T01:23:02.489Z,75.82
2023-04-15T01:25:34.409Z,75.71
2023-04-15T01:28:02.415Z,77.25
2023-04-15T01:30:30.606Z,78.11
2023-04-15T01:32:58.601Z,78.72
2023-04-15T01:35:27.237Z,78.82
2023-04-15T01:37:55.834Z,79.24
2023-04-15T01:40:23.844Z,79.65
2023-04-15T01:42:53.049Z,79.19
2023-04-15T01:45:21.216Z,80.13
2023-04-15T01:47:49.406Z,79.83
2023-04-15T01:50:17.335Z,80.65
2023-04-15T01:52:45.268Z,80.46
2023-04-15T01:55:14.070Z,81.98
2023-04-15T01:57:42.334Z,81.82
2023-04-15T02:00:12.806Z,82.79
2023-04-15T02:02:40.828Z,82.49
2023-04-15T02:05:09.635Z,83.28
2023-04-15T02:07:37.989Z,83.44
2023-04-15T02:10:06.503Z,83.92
2023-04-15T02:12:34.355Z,83.50
2023-04-15T02:15:02.180Z,84.87
2023-04-15T02:17:31.714Z,84.14
2023-04-15T02:19:59.809Z,84.56
2023-04-15T02:22:27.961Z,85.07
2023-04-15T02:24:55.956Z,84.48
2023-04-15T02:27:24.040Z,84.29
2023-04-15T02:29:52.333Z,83.61
2023-04-15T02:32:20.926Z,84.31
2023-04-15T02:34:52.810Z,84.11
2023-04-15T02:37:21.177Z,83.61
2023-04-15T02:39:49.218Z,83.65
2023-04-15T02:42:17.234Z,82.81
2023-04-15T02:44:45.340Z,83.63
2023-04-15T02:47:14.426Z,83.02
2023-04-15T02:49:42.421Z,82.36
2023-04-15T02:52:11.635Z,82.33
2023-04-15T02:54:39.442Z,82.37
2023-04-15T02:57:11.786Z,82.24
2023-04-15T02:59:39.790Z,82.40
2023-04-15T03:03:03.031Z,82.44
2023-04-15T03:05:31.580Z,82.61
2023-04-15T03:08:01.295Z,82.24
2023-04-15T03:10:29.725Z,82.58
2023-04-15T03:12:57.611Z,81.50
2023-04-15T03:15:25.540Z,81.58
2023-04-15T03:17:53.522Z,81.98
2023-04-15T03:20:21.707Z,81.47
2023-04-15T03:22:49.769Z,81.75
2023-04-15T03:25:19.274Z,82.20
2023-04-15T03:27:47.231Z,81.36
2023-04-15T03:30:15.336Z,80.67
2023-04-15T03:32:43.278Z,81.80
2023-04-15T03:35:11.269Z,81.59
2023-04-15T03:37:39.146Z,81.60
2023-04-15T03:40:08.854Z,81.64
2023-04-15T03:42:38.223Z,81.53
2023-04-15T03:45:07.684Z,81.39
2023-04-15T03:47:35.620Z,82.09
2023-04-15T03:50:03.739Z,82.15
2023-04-15T03:52:31.626Z,81.06
2023-04-15T03:54:59.525Z,81.63
2023-04-15T03:57:27.611Z,80.96
2023-04-15T03:59:56.817Z,82.21
2023-04-15T04:02:24.876Z,81.92
2023-04-15T04:04:52.989Z,81.76
2023-04-15T04:07:20.880Z,81.86
2023-04-15T04:09:48.747Z,81.68
2023-04-15T04:12:16.825Z,81.98
2023-04-15T04:14:44.754Z,82.74
2023-04-15T04:17:13.975Z,82.35
2023-04-15T04:19:41.886Z,81.30
2023-04-15T04:22:09.710Z,82.03
2023-04-15T04:24:37.580Z,82.29
2023-04-15T04:27:05.660Z,81.26
2023-04-15T04:29:33.494Z,82.39
2023-04-15T04:32:01.386Z,81.61
2023-04-15T04:34:30.707Z,82.19
2023-04-15T04:36:58.530Z,83.05
2023-04-15T04:39:26.408Z,82.72
2023-04-15T04:41:54.436Z,82.67
2023-04-15T04:44:25.260Z,82.87
2023-04-15T04:46:53.271Z,82.97
2023-04-15T04:49:21.201Z,83.00
2023-04-15T04:51:50.959Z,83.31
2023-04-15T04:54:18.750Z,84.08
2023-04-15T04:56:46.604Z,83.49
2023-04-15T04:59:14.428Z,83.28
2023-04-15T05:01:42.883Z,83.64
2023-04-15T05:04:11.053Z,84.39
2023-04-15T05:06:42.296Z,84.08
2023-04-15T05:09:11.543Z,83.28
2023-04-15T05:11:39.406Z,84.33
2023-04-15T05:14:07.636Z,84.16
2023-04-15T05:16:35.409Z,83.99
2023-04-15T05:19:03.347Z,83.82
2023-04-15T05:21:31.781Z,84.12
2023-04-15T05:23:59.573Z,84.52
2023-04-15T05:26:29.100Z,84.58
2023-04-15T05:28:56.917Z,83.97
2023-04-15T05:31:24.826Z,84.51
2023-04-15T05:33:52.724Z,84.63
2023-04-15T05:36:21.121Z,84.66
2023-04-15T05:38:49.029Z,84.90
2023-04-15T05:41:19.709Z,84.55
2023-04-15T05:43:49.161Z,84.45
2023-04-15T05:46:17.079Z,84.63
2023-04-15T05:48:45.012Z,85.04
2023-04-15T05:51:12.894Z,84.73
2023-04-15T05:53:41.607Z,85.40
2023-04-15T05:56:09.730Z,85.30
2023-04-15T05:58:37.688Z,85.80
2023-04-15T06:01:07.478Z,85.29
2023-04-15T06:03:35.806Z,85.48
2023-04-15T06:06:03.808Z,85.13
2023-04-15T06:08:31.812Z,85.94
2023-04-15T06:11:00.369Z,85.48
2023-04-15T06:13:28.288Z,85.17
2023-04-15T06:15:56.154Z,84.92
2023-04-15T06:18:25.461Z,84.38
2023-04-15T06:20:53.391Z,85.26
2023-04-15T06:23:21.498Z,84.64
2023-04-15T06:25:49.496Z,84.64
2023-04-15T06:28:17.491Z,85.61
2023-04-15T06:30:45.459Z,85.35
2023-04-15T06:33:13.409Z,85.01
2023-04-15T06:35:42.677Z,85.15
2023-04-15T06:38:10.616Z,85.07
2023-04-15T06:40:38.622Z,86.00
2023-04-15T06:43:06.485Z,85.07
2023-04-15T06:45:34.415Z,84.74
2023-04-15T06:48:02.420Z,85.19
2023-04-15T06:50:30.294Z,85.45
2023-04-15T06:52:59.553Z,85.13
2023-04-15T06:55:27.545Z,85.83
2023-04-15T06:57:55.558Z,85.08
2023-04-15T07:00:23.544Z,84.76
2023-04-15T07:02:52.099Z,85.59
2023-04-15T07:05:20.284Z,85.40
2023-04-15T07:07:48.233Z,85.38
2023-04-15T07:10:17.581Z,85.93
2023-04-15T07:12:45.871Z,85.93
2023-04-15T07:15:13.725Z,86.31
2023-04-15T07:17:43.329Z,86.68
2023-04-15T07:20:12.949Z,86.53
2023-04-15T07:22:41.354Z,85.69
2023-04-15T07:25:10.209Z,86.11
2023-04-15T07:27:39.435Z,85.18
2023-04-15T07:30:09.196Z,86.21
2023-04-15T07:32:37.688Z,85.49
2023-04-15T07:35:06.209Z,86.15
2023-04-15T07:37:34.092Z,86.02
2023-04-15T07:40:02.012Z,85.33
2023-04-15T07:42:30.621Z,86.00
2023-04-15T07:44:59.852Z,86.45
2023-04-15T07:47:28.266Z,85.87
2023-04-15T07:49:56.093Z,86.37
2023-04-15T07:52:23.920Z,85.56
2023-04-15T07:54:51.825Z,85.50
2023-04-15T07:57:20.036Z,85.32
2023-04-15T07:59:47.844Z,85.26
2023-04-15T08:02:17.130Z,85.20
2023-04-15T08:04:45.276Z,85.23
2023-04-15T08:07:13.268Z,85.37
2023-04-15T08:09:41.375Z,85.22
2023-04-15T08:12:12.501Z,84.74
2023-04-15T08:14:40.711Z,84.98
2023-04-15T08:17:08.888Z,84.75
2023-04-15T08:19:38.299Z,85.11
2023-04-15T08:22:06.715Z,85.22
2023-04-15T08:24:43.046Z,84.68
2023-04-15T08:27:10.921Z,85.00
2023-04-15T08:29:40.751Z,85.32
2023-04-15T08:32:08.836Z,84.27
2023-04-15T08:34:38.453Z,85.49
2023-04-15T08:37:06.562Z,84.59
2023-04-15T08:39:34.443Z,84.19
2023-04-15T08:42:03.584Z,84.65
2023-04-15T08:44:34.494Z,84.31
2023-04-15T08:47:03.606Z,83.80
2023-04-15T08:49:31.777Z,83.67
2023-04-15T08:52:01.598Z,83.43
2023-04-15T08:54:29.716Z,83.63
2023-04-15T08:56:59.828Z,84.23
2023-04-15T08:59:27.780Z,84.23
2023-04-15T09:01:56.824Z,84.63
2023-04-15T09:04:24.713Z,84.21
2023-04-15T09:06:53.472Z,84.47
2023-04-15T09:09:22.771Z,83.98
2023-04-15T09:11:51.621Z,83.98
2023-04-15T09:14:19.553Z,83.86
2023-04-15T09:17:02.014Z,83.70
2023-04-15T09:19:30.600Z,83.76
2023-04-15T09:21:59.830Z,83.65
2023-04-15T09:24:38.523Z,84.23
2023-04-15T09:27:07.439Z,83.87
2023-04-15T09:29:35.354Z,83.67
2023-04-15T09:32:14.034Z,84.10
2023-04-15T09:34:42.048Z,83.63
2023-04-15T09:37:11.048Z,83.40
2023-04-15T09:39:51.163Z,83.49
2023-04-15T09:42:24.447Z,83.68
2023-04-15T09:44:53.063Z,83.36
2023-04-15T09:47:30.628Z,83.69
2023-04-15T09:49:59.078Z,83.33
2023-04-15T09:52:27.478Z,84.36
2023-04-15T09:54:58.167Z,84.00
2023-04-15T09:57:26.186Z,83.33
2023-04-15T09:59:54.333Z,84.21
2023-04-15T10:02:22.551Z,83.49
2023-04-15T10:04:50.990Z,84.19
2023-04-15T10:07:22.568Z,84.41
2023-04-15T10:09:51.140Z,84.17
2023-04-15T10:12:21.255Z,84.30
2023-04-15T10:14:53.846Z,83.77
2023-04-15T10:17:24.037Z,83.12
2023-04-15T10:19:55.585Z,84.10
2023-04-15T10:22:24.250Z,84.35
2023-04-15T10:24:53.823Z,83.67
2023-04-15T10:27:23.694Z,84.19
2023-04-15T10:29:52.407Z,82.85
2023-04-15T10:32:22.485Z,82.82
2023-04-15T10:34:54.190Z,83.98
2023-04-15T10:37:23.847Z,83.33
2023-04-15T10:39:51.969Z,83.56
2023-04-15T10:42:22.721Z,83.48
2023-04-15T10:44:51.993Z,83.20
2023-04-15T10:47:21.640Z,83.94
2023-04-15T10:49:51.623Z,82.87
2023-04-15T10:52:24.542Z,82.82
2023-04-15T10:55:04.589Z,83.03
2023-04-15T10:57:40.261Z,83.38
2023-04-15T11:00:13.982Z,82.91
2023-04-15T11:02:44.116Z,83.15
2023-04-15T11:05:13.119Z,84.38
2023-04-15T11:07:53.049Z,84.56
2023-04-15T11:10:53.990Z,84.37
2023-04-15T11:13:27.225Z,85.51
2023-04-15T11:15:59.364Z,85.25
2023-04-15T11:18:30.488Z,85.93
2023-04-15T11:21:00.324Z,85.27
2023-04-15T11:23:34.181Z,84.99
2023-04-15T11:26:03.434Z,84.67
2023-04-15T11:28:33.754Z,84.50
2023-04-15T11:31:08.575Z,85.06
2023-04-15T11:33:36.528Z,85.29
2023-04-15T11:36:04.735Z,85.47
2023-04-15T11:38:32.716Z,85.19
2023-04-15T11:41:00.878Z,85.62
2023-04-15T11:43:29.035Z,84.80
2023-04-15T11:46:00.464Z,84.52
2023-04-15T11:48:30.135Z,84.53
2023-04-15T11:51:00.480Z,85.06
2023-04-15T11:53:39.328Z,85.45
2023-04-15T11:56:08.960Z,85.27
2023-04-15T11:58:39.276Z,84.27
2023-04-15T12:01:08.987Z,84.04
2023-04-15T12:03:41.559Z,83.11
2023-04-15T12:06:16.653Z,82.80
2023-04-15T12:09:02.229Z,81.56
2023-04-15T12:11:33.320Z,80.39
2023-04-15T12:14:05.638Z,79.68
2023-04-15T12:16:48.041Z,79.31
2023-04-15T12:19:19.357Z,79.51
2023-04-15T12:21:49.010Z,79.70
2023-04-15T12:24:16.799Z,79.54
2023-04-15T12:26:46.672Z,80.15
2023-04-15T12:29:16.377Z,79.66
2023-04-15T12:31:53.637Z,79.77
2023-04-15T12:34:29.553Z,79.39
2023-04-15T12:36:59.007Z,79.14
2023-04-15T12:39:30.495Z,78.83
2023-04-15T12:41:59.410Z,78.90
2023-04-15T12:44:28.030Z,78.32
2023-04-15T12:46:57.856Z,78.98
2023-04-15T12:49:26.016Z,78.87
2023-04-15T12:51:55.999Z,78.39
2023-04-15T12:54:24.621Z,78.34
2023-04-15T12:56:54.253Z,77.81
2023-04-15T12:59:23.895Z,77.91
2023-04-15T13:01:53.662Z,77.32
2023-04-15T13:04:23.635Z,76.53
2023-04-15T13:06:51.851Z,74.32
2023-04-15T13:09:19.720Z,75.76
2023-04-15T13:11:47.674Z,75.28
2023-04-15T13:14:15.871Z,75.84
2023-04-15T13:16:43.637Z,76.29
2023-04-15T13:19:11.587Z,74.33
2023-04-15T13:21:41.091Z,73.83
2023-04-15T13:24:09.738Z,73.90
2023-04-15T13:26:37.987Z,73.61
2023-04-15T13:29:05.955Z,74.18
2023-04-15T13:31:33.797Z,74.94
2023-04-15T13:34:02.036Z,76.01
2023-04-15T13:36:30.019Z,74.94
2023-04-15T13:39:00.018Z,73.35
2023-04-15T13:41:27.946Z,75.11
2023-04-15T13:43:55.833Z,75.64
2023-04-15T13:46:23.792Z,74.44
2023-04-15T13:48:51.640Z,74.05
2023-04-15T13:51:19.462Z,73.66
2023-04-15T13:53:47.416Z,72.42
2023-04-15T13:56:16.717Z,71.47
2023-04-15T13:58:44.597Z,72.72
2023-04-15T14:01:12.600Z,73.24
2023-04-15T14:03:40.793Z,73.54
2023-04-15T14:06:08.841Z,74.04
2023-04-15T14:08:36.706Z,74.05
2023-04-15T14:11:04.533Z,74.30
2023-04-15T14:13:33.867Z,75.08
2023-04-15T14:16:01.793Z,74.76
2023-04-15T14:18:30.663Z,74.99
2023-04-15T14:20:58.536Z,74.52
2023-04-15T14:23:26.400Z,75.05
2023-04-15T14:25:54.737Z,74.66
2023-04-15T14:28:22.573Z,74.86
2023-04-15T14:30:51.985Z,74.89
2023-04-15T14:33:19.959Z,74.51
2023-04-15T14:35:48.199Z,73.71
2023-04-15T14:38:19.057Z,73.82
2023-04-15T14:40:47.012Z,74.27
2023-04-15T14:43:14.993Z,73.94
2023-04-15T14:45:44.608Z,73.56
2023-04-15T14:48:15.188Z,73.71
2023-04-15T14:50:45.967Z,73.62
2023-04-15T14:53:14.182Z,73.34
2023-04-15T14:55:42.351Z,73.76
2023-04-15T14:58:10.304Z,74.04
2023-04-15T15:00:42.175Z,73.68
2023-04-15T15:03:13.730Z,73.20
2023-04-15T15:05:43.953Z,73.06
2023-04-15T15:08:12.730Z,72.53
2023-04-15T15:10:48.163Z,71.88
2023-04-15T15:13:16.908Z,72.35
2023-04-15T15:15:45.072Z,72.28
2023-04-15T15:18:13.155Z,73.20
2023-04-15T15:20:41.260Z,73.27
2023-04-15T15:23:10.620Z,72.86
2023-04-15T15:25:38.611Z,72.91
2023-04-15T15:28:07.169Z,72.71
2023-04-15T15:30:35.071Z,72.95
2023-04-15T15:33:08.194Z,71.87
2023-04-15T15:35:36.386Z,72.42
2023-04-15T15:38:04.396Z,72.66
2023-04-15T15:40:33.802Z,72.74
2023-04-15T15:43:01.715Z,72.34
2023-04-15T15:45:29.600Z,71.78
2023-04-15T15:48:00.658Z,71.59
2023-04-15T15:50:28.811Z,71.60
2023-04-15T15:52:58.748Z,71.89
2023-04-15T15:55:27.329Z,72.30
2023-04-15T15:57:56.680Z,72.17
2023-04-15T16:00:24.562Z,71.84
2023-04-15T16:03:06.716Z,72.11
2023-04-15T16:05:37.943Z,72.32
2023-04-15T16:08:06.303Z,72.39
2023-04-15T16:10:37.649Z,73.01
2023-04-15T16:13:11.918Z,72.87
2023-04-15T16:15:40.043Z,73.16
2023-04-15T16:18:16.011Z,73.18
2023-04-15T16:20:44.086Z,72.62
2023-04-15T16:23:14.843Z,72.35
2023-04-15T16:25:43.748Z,72.44
2023-04-15T16:28:25.789Z,72.02
2023-04-15T16:30:55.112Z,71.30
2023-04-15T16:33:23.128Z,71.79
2023-04-15T16:35:52.773Z,71.18
2023-04-15T16:38:20.882Z,71.44
2023-04-15T16:40:48.830Z,72.23
2023-04-15T16:43:18.441Z,72.25
2023-04-15T16:45:50.891Z,72.58
2023-04-15T16:48:19.285Z,72.04
2023-04-15T16:50:47.516Z,72.44
2023-04-15T16:53:16.075Z,73.21
2023-04-15T16:55:43.973Z,73.26
2023-04-15T16:58:11.814Z,73.65
2023-04-15T17:00:41.078Z,73.31
2023-04-15T17:03:09.104Z,74.28
2023-04-15T17:05:37.120Z,74.00
2023-04-15T17:08:05.530Z,74.33
2023-04-15T17:10:33.470Z,74.62
2023-04-15T17:13:01.342Z,74.55
2023-04-15T17:15:29.229Z,74.94
2023-04-15T17:17:58.392Z,74.91
2023-04-15T17:20:26.606Z,74.86
2023-04-15T17:22:54.555Z,74.89
2023-04-15T17:25:22.464Z,75.09
2023-04-15T17:27:50.356Z,75.65
2023-04-15T17:30:18.190Z,75.15
2023-04-15T17:32:46.152Z,75.17
2023-04-15T17:35:15.446Z,75.29
2023-04-15T17:37:43.310Z,76.33
2023-04-15T17:40:12.244Z,75.21
2023-04-15T17:42:40.300Z,76.10
2023-04-15T17:45:09.252Z,76.37
2023-04-15T17:47:37.168Z,75.24
2023-04-15T17:50:05.469Z,76.42
2023-04-15T17:52:34.973Z,76.17
2023-04-15T17:55:03.546Z,75.82
2023-04-15T17:57:31.435Z,75.55
2023-04-15T17:59:59.419Z,75.21
2023-04-15T18:02:27.425Z,75.41
2023-04-15T18:04:55.527Z,75.09
2023-04-15T18:07:23.512Z,75.24
2023-04-15T18:12:23.695Z,75.27
2023-04-15T18:14:51.510Z,75.07
2023-04-15T18:17:20.342Z,75.51
2023-04-15T18:19:48.324Z,75.88
2023-04-15T18:22:16.130Z,75.13
2023-04-15T18:24:43.987Z,75.72
2023-04-15T18:27:13.182Z,75.36
2023-04-15T18:29:40.972Z,75.93
2023-04-15T18:32:08.875Z,75.00
2023-04-15T18:34:36.902Z,74.88
2023-04-15T18:37:05.415Z,75.56
2023-04-15T18:39:33.256Z,75.15
2023-04-15T18:42:01.954Z,75.62
2023-04-15T18:44:31.355Z,75.84
2023-04-15T18:46:59.278Z,75.70
2023-04-15T18:49:27.460Z,75.94
2023-04-15T18:51:55.715Z,76.58
2023-04-15T18:54:23.694Z,76.18
2023-04-15T18:56:52.231Z,75.72
2023-04-15T18:59:29.319Z,76.20
2023-04-15T19:02:00.469Z,76.15
2023-04-15T19:04:29.760Z,75.83
2023-04-15T19:06:58.945Z,76.68
2023-04-15T19:09:27.316Z,76.34
2023-04-15T19:11:56.944Z,76.09
2023-04-15T19:14:24.940Z,76.22
2023-04-15T19:16:52.909Z,75.51
2023-04-15T19:19:22.297Z,76.18
2023-04-15T19:21:50.422Z,76.11
2023-04-15T19:24:18.899Z,76.41
2023-04-15T19:26:49.561Z,76.75
2023-04-15T19:29:17.666Z,76.97
2023-04-15T19:31:45.564Z,76.48
2023-04-15T19:34:13.626Z,77.06
2023-04-15T19:36:43.218Z,77.05
2023-04-15T19:39:11.474Z,76.53
2023-04-15T19:41:39.395Z,76.81
2023-04-15T19:44:07.322Z,76.72
2023-04-15T19:46:35.289Z,77.46
2023-04-15T19:49:03.590Z,76.25
2023-04-15T19:51:31.894Z,77.34
2023-04-15T19:54:01.062Z,76.96
2023-04-15T19:56:29.364Z,77.24
2023-04-15T19:58:57.233Z,77.42
2023-04-15T20:01:25.299Z,77.67
2023-04-15T20:03:54.202Z,76.82
2023-04-15T20:06:22.672Z,76.38
2023-04-15T20:08:50.842Z,76.38
2023-04-15T20:11:20.269Z,77.19
2023-04-15T20:13:48.140Z,76.82
2023-04-15T20:16:16.075Z,77.68
2023-04-15T20:18:43.866Z,77.44
2023-04-15T20:21:11.717Z,77.30
2023-04-15T20:23:39.655Z,77.84
2023-04-15T20:26:07.540Z,78.08
2023-04-15T20:28:36.783Z,77.24
2023-04-15T20:31:04.889Z,76.83
2023-04-15T20:33:32.694Z,76.98
2023-04-15T20:36:00.541Z,77.13
2023-04-15T20:38:28.442Z,77.69
2023-04-15T20:40:57.878Z,77.46
2023-04-15T20:43:26.181Z,77.97
2023-04-15T20:45:58.801Z,77.53
2023-04-15T20:48:30.012Z,77.36
2023-04-15T20:50:57.823Z,77.79
2023-04-15T20:53:25.774Z,78.19
2023-04-15T20:55:53.561Z,77.96
2023-04-15T20:58:21.502Z,77.99
2023-04-15T21:00:50.784Z,77.79
2023-04-15T21:03:20.187Z,78.06
2023-04-15T21:05:48.180Z,78.05
2023-04-15T21:08:16.149Z,77.80
2023-04-15T21:10:44.153Z,78.15
2023-04-15T21:13:13.189Z,77.41
2023-04-15T21:15:41.555Z,78.25
2023-04-15T21:18:09.423Z,78.15
2023-04-15T21:20:38.592Z,78.07
2023-04-15T21:23:06.459Z,78.69
2023-04-15T21:25:34.369Z,78.33
2023-04-15T21:28:03.672Z,78.22
2023-04-15T21:30:31.653Z,78.15
2023-04-15T21:32:59.426Z,79.02
2023-04-15T21:35:28.684Z,78.58
2023-04-15T21:37:58.074Z,78.23
2023-04-15T21:40:25.978Z,77.85
2023-04-15T21:42:53.989Z,77.66
2023-04-15T21:45:21.871Z,78.26
2023-04-15T21:47:57.150Z,78.36
2023-04-15T21:50:36.652Z,78.61
2023-04-15T21:53:08.315Z,78.29
2023-04-15T21:55:36.575Z,78.57
2023-04-15T21:58:04.531Z,78.55
2023-04-15T22:00:32.461Z,78.26
2023-04-15T22:03:00.581Z,78.92
2023-04-15T22:05:28.564Z,79.04
2023-04-15T22:07:58.283Z,79.27
2023-04-15T22:10:28.714Z,79.21
2023-04-15T22:12:57.068Z,79.94
2023-04-15T22:15:24.958Z,79.20
2023-04-15T22:17:52.925Z,78.69
2023-04-15T22:20:20.859Z,79.29
2023-04-15T22:22:48.708Z,79.71
2023-04-15T22:25:22.421Z,79.38
2023-04-15T22:27:51.715Z,79.81
2023-04-15T22:30:19.515Z,79.82
2023-04-15T22:32:47.428Z,80.00
2023-04-15T22:35:15.444Z,79.61
2023-04-15T22:37:43.340Z,78.97
2023-04-15T22:40:12.204Z,79.79
2023-04-15T22:42:40.094Z,80.23
2023-04-15T22:45:10.640Z,80.10
2023-04-15T22:47:38.469Z,79.67
2023-04-15T22:50:07.625Z,79.44
2023-04-15T22:52:35.587Z,80.02
2023-04-15T22:55:04.007Z,80.39
2023-04-15T22:57:31.837Z,80.54
2023-04-15T22:59:59.836Z,80.54
2023-04-15T23:02:29.191Z,80.58
2023-04-15T23:04:57.813Z,81.30
2023-04-15T23:07:25.784Z,80.80
2023-04-15T23:09:53.619Z,82.04
2023-04-15T23:12:21.590Z,82.16
2023-04-15T23:14:49.378Z,81.96
2023-04-15T23:17:17.257Z,81.75
2023-04-15T23:19:46.457Z,81.71
2023-04-15T23:22:14.295Z,81.45
2023-04-15T23:24:42.228Z,81.57
2023-04-15T23:27:10.103Z,81.81
2023-04-15T23:29:37.892Z,82.96
2023-04-15T23:32:06.257Z,82.59
2023-04-15T23:34:34.166Z,81.78
2023-04-15T23:37:03.307Z,81.84
2023-04-15T23:39:31.326Z,82.53
2023-04-15T23:41:59.212Z,82.50
2023-04-15T23:44:27.175Z,82.20
2023-04-15T23:46:55.140Z,83.26
2023-04-15T23:49:23.038Z,82.40
2023-04-15T23:51:51.101Z,82.54
2023-04-15T23:54:20.386Z,82.76
2023-04-15T23:56:48.283Z,83.07
2023-04-15T23:59:16.251Z,82.51
